createdAt,value
2022-10-09T00:02:00.445Z,101555.38
2022-10-09T00:04:30.550Z,101554.50
2022-10-09T00:07:00.629Z,101556.22
2022-10-09T00:09:30.806Z,101561.41
2022-10-09T00:12:00.895Z,101560.56
2022-10-09T00:14:31.128Z,101589.25
2022-10-09T00:17:01.301Z,101570.97
2022-10-09T00:19:31.510Z,101570.09
2022-10-09T00:22:01.681Z,101573.56
2022-10-09T00:24:31.867Z,101591.78
2022-10-09T00:30:43.023Z,101589.97
2022-10-09T00:33:13.315Z,101583.88
2022-10-09T00:35:43.841Z,101582.13
2022-10-09T00:38:14.551Z,101581.25
2022-10-09T00:40:44.673Z,101576.91
2022-10-09T00:43:36.900Z,101589.94
2022-10-09T00:46:16.085Z,101580.38
2022-10-09T00:48:50.745Z,101576.97
2022-10-09T00:51:20.920Z,101583.09
2022-10-09T00:53:51.469Z,101581.38
2022-10-09T00:56:21.963Z,101581.28
2022-10-09T00:58:55.504Z,101594.34
2022-10-09T01:01:25.809Z,101581.28
2022-10-09T01:03:55.995Z,101590.09
2022-10-09T01:07:03.083Z,101590.94
2022-10-09T01:09:45.103Z,101594.41
2022-10-09T01:12:29.505Z,101587.47
2022-10-09T01:15:19.838Z,101595.28
2022-10-09T01:17:59.705Z,101563.03
2022-10-09T01:20:51.030Z,101596.19
2022-10-09T01:23:39.901Z,101597.91
2022-10-09T01:26:34.249Z,101604.84
2022-10-09T01:29:10.777Z,101604.00
2022-10-09T01:31:45.100Z,101597.81
2022-10-09T01:34:18.658Z,101611.81
2022-10-09T01:36:50.502Z,101613.53
2022-10-09T01:39:24.086Z,101619.63
2022-10-09T01:41:55.619Z,101629.19
2022-10-09T01:44:31.062Z,101622.22
2022-10-09T01:47:01.757Z,101621.28
2022-10-09T01:50:02.523Z,101631.72
2022-10-09T01:52:49.173Z,101632.53
2022-10-09T01:55:27.729Z,101629.03
2022-10-09T01:58:23.716Z,101642.97
2022-10-09T02:01:18.289Z,101645.56
2022-10-09T02:03:52.384Z,101661.19
2022-10-09T02:06:23.793Z,101647.25
2022-10-09T02:08:55.577Z,101654.19
2022-10-09T02:11:30.567Z,101664.63
2022-10-09T02:14:00.675Z,101672.44
2022-10-09T02:16:40.011Z,101668.94
2022-10-09T02:19:49.025Z,101680.25
2022-10-09T02:22:24.269Z,101675.88
2022-10-09T02:24:55.510Z,101690.66
2022-10-09T02:27:26.920Z,101687.09
2022-10-09T02:29:59.145Z,101694.94
2022-10-09T02:32:29.613Z,101698.38
2022-10-09T02:34:59.857Z,101712.28
2022-10-09T02:37:29.975Z,101702.72
2022-10-09T02:40:00.187Z,101695.78
2022-10-09T02:42:30.329Z,101713.16
2022-10-09T02:45:00.462Z,101704.44
2022-10-09T02:47:30.563Z,101714.88
2022-10-09T02:50:00.747Z,101714.84
2022-10-09T02:52:30.893Z,101712.19
2022-10-09T02:55:00.977Z,101721.75
2022-10-09T02:57:31.431Z,101715.66
2022-10-09T03:00:01.577Z,101715.63
2022-10-09T03:02:31.785Z,101724.31
2022-10-09T03:05:01.975Z,101726.91
2022-10-09T03:07:32.117Z,101738.22
2022-10-09T03:10:02.342Z,101739.91
2022-10-09T03:12:32.432Z,101743.38
2022-10-09T03:15:02.659Z,101739.00
2022-10-09T03:17:32.821Z,101742.44
2022-10-09T03:20:03.307Z,101751.16
2022-10-09T03:22:33.916Z,101752.00
2022-10-09T03:25:04.316Z,101744.13
2022-10-09T03:27:34.474Z,101748.47
2022-10-09T03:30:05.161Z,101751.00
2022-10-09T03:32:35.381Z,101767.56
2022-10-09T03:35:05.943Z,101762.25
2022-10-09T03:37:36.025Z,101774.44
2022-10-09T03:40:06.588Z,101777.94
2022-10-09T03:42:36.669Z,101750.00
2022-10-09T03:45:07.252Z,101773.56
2022-10-09T03:47:37.441Z,101766.63
2022-10-09T03:50:08.129Z,101770.06
2022-10-09T03:52:38.402Z,101770.88
2022-10-09T03:55:08.995Z,101778.66
2022-10-09T03:57:39.194Z,101783.88
2022-10-09T04:00:10.709Z,101779.47
2022-10-09T04:02:40.870Z,101786.44
2022-10-09T04:05:11.080Z,101786.47
2022-10-09T04:07:41.281Z,101800.41
2022-10-09T04:10:11.766Z,101805.63
2022-10-09T04:12:41.906Z,101796.91
2022-10-09T04:15:12.118Z,101796.06
2022-10-09T04:17:42.253Z,101807.38
2022-10-09T04:20:12.527Z,101806.47
2022-10-09T04:22:42.749Z,101811.66
2022-10-09T04:25:13.033Z,101820.41
2022-10-09T04:27:43.153Z,101815.13
2022-10-09T04:30:13.493Z,101822.94
2022-10-09T04:32:43.591Z,101821.25
2022-10-09T04:35:13.753Z,101835.13
2022-10-09T04:37:44.051Z,101822.03
2022-10-09T04:40:14.170Z,101837.69
2022-10-09T04:42:44.266Z,101840.25
2022-10-09T04:45:14.412Z,101819.28
2022-10-09T04:47:44.466Z,101848.03
2022-10-09T04:50:15.506Z,101843.66
2022-10-09T04:52:45.862Z,101848.81
2022-10-09T04:55:16.153Z,101845.34
2022-10-09T04:57:46.372Z,101850.47
2022-10-09T05:00:16.784Z,101854.84
2022-10-09T05:02:47.344Z,101863.50
2022-10-09T05:05:17.710Z,101865.25
2022-10-09T05:07:47.820Z,101850.44
2022-10-09T05:10:17.972Z,101862.66
2022-10-09T05:12:48.187Z,101880.09
2022-10-09T05:15:19.753Z,101871.31
2022-10-09T05:17:49.964Z,101885.22
2022-10-09T05:20:20.053Z,101889.59
2022-10-09T05:22:50.505Z,101889.59
2022-10-09T05:25:20.778Z,101893.09
2022-10-09T05:27:50.914Z,101888.66
2022-10-09T05:30:21.054Z,101898.28
2022-10-09T05:32:51.428Z,101903.50
2022-10-09T05:35:21.928Z,101903.50
2022-10-09T05:37:52.029Z,101890.38
2022-10-09T05:40:28.344Z,101900.84
2022-10-09T05:42:59.312Z,101916.56
2022-10-09T05:45:29.396Z,101904.31
2022-10-09T05:47:59.547Z,101918.22
2022-10-09T05:50:29.666Z,101919.16
2022-10-09T05:52:59.954Z,101918.34
2022-10-09T05:55:30.118Z,101927.97
2022-10-09T05:58:00.340Z,101925.28
2022-10-09T06:00:31.710Z,101944.47
2022-10-09T06:03:01.863Z,101948.84
2022-10-09T06:05:32.087Z,101949.72
2022-10-09T06:08:02.269Z,101949.72
2022-10-09T06:10:32.744Z,101951.50
2022-10-09T06:13:02.962Z,101954.16
2022-10-09T06:15:33.105Z,101960.19
2022-10-09T06:18:03.402Z,101962.81
2022-10-09T06:20:33.567Z,101962.75
2022-10-09T06:23:03.738Z,101963.66
2022-10-09T06:25:33.923Z,101983.72
2022-10-09T06:28:04.074Z,101974.16
2022-10-09T06:30:38.593Z,101976.78
2022-10-09T06:33:09.143Z,102002.00
2022-10-09T06:35:39.434Z,102005.56
2022-10-09T06:38:09.680Z,102007.41
2022-10-09T06:40:39.849Z,101993.47
2022-10-09T06:43:09.990Z,102012.75
2022-10-09T06:45:40.155Z,102014.53
2022-10-09T06:48:10.315Z,102017.13
2022-10-09T06:50:40.424Z,102026.78
2022-10-09T06:53:10.635Z,102015.41
2022-10-09T06:55:40.778Z,102018.06
2022-10-09T06:58:10.918Z,102012.78
2022-10-09T07:00:40.963Z,102024.16
2022-10-09T07:03:11.367Z,102025.94
2022-10-09T07:05:41.906Z,102033.72
2022-10-09T07:08:12.035Z,102031.91
2022-10-09T07:10:42.202Z,102052.03
2022-10-09T07:13:12.358Z,102034.59
2022-10-09T07:15:46.729Z,102048.56
2022-10-09T07:18:16.927Z,102053.88
2022-10-09T07:20:47.111Z,102065.25
2022-10-09T07:23:17.165Z,102057.50
2022-10-09T07:25:47.390Z,102067.19
2022-10-09T07:28:17.606Z,102068.91
2022-10-09T07:30:47.765Z,102062.81
2022-10-09T07:33:17.827Z,102083.81
2022-10-09T07:35:59.405Z,102076.00
2022-10-09T07:38:30.179Z,102079.44
2022-10-09T07:41:06.207Z,102060.25
2022-10-09T07:43:38.382Z,102088.31
2022-10-09T07:46:13.361Z,102082.28
2022-10-09T07:48:43.731Z,102095.38
2022-10-09T07:51:18.487Z,102084.94
2022-10-09T07:53:49.038Z,102088.47
2022-10-09T07:56:20.355Z,102094.59
2022-10-09T07:58:55.657Z,102082.44
2022-10-09T08:01:28.324Z,102099.06
2022-10-09T08:03:59.961Z,102097.22
2022-10-09T08:06:30.902Z,102098.06
2022-10-09T08:09:03.077Z,102103.25
2022-10-09T08:11:33.522Z,102102.28
2022-10-09T08:14:03.719Z,102104.91
2022-10-09T08:16:33.862Z,102107.59
2022-10-09T08:19:04.782Z,102111.97
2022-10-09T08:21:34.921Z,102125.03
2022-10-09T08:24:05.320Z,102126.63
2022-10-09T08:26:35.489Z,102127.53
2022-10-09T08:29:08.826Z,102128.53
2022-10-09T08:31:39.301Z,102138.19
2022-10-09T08:34:09.486Z,102131.22
2022-10-09T08:36:39.794Z,102139.97
2022-10-09T08:39:10.271Z,102135.56
2022-10-09T08:41:53.582Z,102149.53
2022-10-09T08:44:49.153Z,102139.06
2022-10-09T08:47:29.002Z,102149.63
2022-10-09T08:50:09.131Z,102164.47
2022-10-09T08:52:57.995Z,102162.00
2022-10-09T08:56:09.451Z,102157.63
2022-10-09T08:58:41.480Z,102159.44
2022-10-09T09:01:32.022Z,102159.53
2022-10-09T09:04:17.145Z,102177.94
2022-10-09T09:06:50.341Z,102169.31
2022-10-09T09:09:37.471Z,102186.75
2022-10-09T09:12:26.220Z,102180.66
2022-10-09T09:15:14.391Z,102178.94
2022-10-09T09:17:48.698Z,102179.84
2022-10-09T09:20:40.167Z,102191.22
2022-10-09T09:23:15.502Z,102187.78
2022-10-09T09:25:46.423Z,102180.91
2022-10-09T09:28:28.513Z,102184.50
2022-10-09T09:31:16.553Z,102181.84
2022-10-09T09:33:55.472Z,102181.91
2022-10-09T09:36:30.935Z,102200.28
2022-10-09T09:41:53.243Z,102181.03
2022-10-09T09:44:25.810Z,102189.78
2022-10-09T09:46:57.192Z,102194.97
2022-10-09T09:49:29.441Z,102199.28
2022-10-09T09:52:01.322Z,102194.88
2022-10-09T09:54:31.598Z,102200.13
2022-10-09T09:57:21.656Z,102195.78
2022-10-09T09:59:52.044Z,102194.06
2022-10-09T10:02:27.005Z,102203.75
2022-10-09T10:05:06.709Z,102193.38
2022-10-09T10:07:42.461Z,102205.56
2022-10-09T10:10:27.581Z,102189.00
2022-10-09T10:12:59.523Z,102185.50
2022-10-09T10:15:33.410Z,102199.50
2022-10-09T10:18:17.445Z,102195.91
2022-10-09T10:21:05.194Z,102200.25
2022-10-09T10:23:43.416Z,102202.91
2022-10-09T10:26:31.157Z,102209.88
2022-10-09T10:29:10.719Z,102203.72
2022-10-09T10:32:03.007Z,102202.78
2022-10-09T10:34:51.224Z,102217.59
2022-10-09T10:37:40.773Z,102225.47
2022-10-09T10:40:25.726Z,102217.69
2022-10-09T10:43:46.758Z,102211.59
2022-10-09T10:46:32.025Z,102212.56
2022-10-09T10:49:02.212Z,102208.31
2022-10-09T10:52:01.455Z,102211.00
2022-10-09T10:54:58.936Z,102211.06
2022-10-09T10:57:41.060Z,102229.41
2022-10-09T11:00:13.782Z,102204.94
2022-10-09T11:02:59.527Z,102215.53
2022-10-09T11:05:47.854Z,102220.78
2022-10-09T11:08:36.446Z,102224.28
2022-10-09T11:11:19.085Z,102228.69
2022-10-09T11:14:20.228Z,102232.22
2022-10-09T11:17:03.613Z,102223.47
2022-10-09T11:19:45.855Z,102220.84
2022-10-09T11:22:26.227Z,102225.25
2022-10-09T11:25:07.207Z,102218.25
2022-10-09T11:27:50.589Z,102219.13
2022-10-09T11:30:22.159Z,102226.09
2022-10-09T11:33:11.031Z,102226.13
2022-10-09T11:35:47.045Z,102221.75
2022-10-09T11:38:26.888Z,102226.97
2022-10-09T11:41:02.679Z,102204.25
2022-10-09T11:43:55.313Z,102226.97
2022-10-09T11:47:02.012Z,102218.22
2022-10-09T11:49:48.381Z,102221.72
2022-10-09T11:52:21.467Z,102223.47
2022-10-09T11:54:52.887Z,102213.91
2022-10-09T11:57:31.473Z,102225.25
2022-10-09T12:00:08.270Z,102213.88
2022-10-09T12:02:39.085Z,102221.75
2022-10-09T12:05:30.273Z,102219.13
2022-10-09T12:08:28.901Z,102216.50
2022-10-09T12:11:19.800Z,102219.13
2022-10-09T12:13:53.615Z,102219.13
2022-10-09T12:16:47.195Z,102219.13
2022-10-09T12:19:26.064Z,102213.00
2022-10-09T12:22:20.467Z,102212.13
2022-10-09T12:24:57.689Z,102213.88
2022-10-09T12:27:33.759Z,102213.03
2022-10-09T12:30:13.392Z,102220.00
2022-10-09T12:32:52.824Z,102215.63
2022-10-09T12:35:36.022Z,102227.00
2022-10-09T12:38:25.512Z,102223.47
2022-10-09T12:41:01.541Z,102221.75
2022-10-09T12:43:32.868Z,102221.75
2022-10-09T12:46:03.209Z,102230.50
2022-10-09T12:48:39.708Z,102232.25
2022-10-09T12:51:21.784Z,102227.00
2022-10-09T12:53:53.536Z,102230.47
2022-10-09T12:56:38.381Z,102230.50
2022-10-09T12:59:11.582Z,102220.00
2022-10-09T13:01:43.576Z,102234.00
2022-10-09T13:04:34.282Z,102237.50
2022-10-09T13:07:18.799Z,102207.78
2022-10-09T13:09:49.448Z,102238.38
2022-10-09T13:12:24.264Z,102230.53
2022-10-09T13:15:00.297Z,102227.88
2022-10-09T13:17:37.044Z,102233.09
2022-10-09T13:20:16.186Z,102233.09
2022-10-09T13:23:04.199Z,102240.03
2022-10-09T13:25:41.365Z,102242.69
2022-10-09T13:28:20.197Z,102231.34
2022-10-09T13:30:50.742Z,102243.56
2022-10-09T13:33:21.006Z,102247.97
2022-10-09T13:35:51.129Z,102239.25
2022-10-09T13:38:21.177Z,102242.72
2022-10-09T13:40:51.698Z,102239.25
2022-10-09T13:43:26.230Z,102234.00
2022-10-09T13:45:56.598Z,102244.44
2022-10-09T13:48:26.833Z,102247.09
2022-10-09T13:50:59.343Z,102232.22
2022-10-09T13:53:29.566Z,102227.84
2022-10-09T13:56:01.060Z,102239.19
2022-10-09T13:58:31.826Z,102240.97
2022-10-09T14:01:02.143Z,102240.97
2022-10-09T14:03:32.247Z,102234.88
2022-10-09T14:06:05.845Z,102242.75
2022-10-09T14:08:36.007Z,102241.84
2022-10-09T14:11:06.301Z,102239.25
2022-10-09T14:13:36.472Z,102256.72
2022-10-09T14:16:07.576Z,102255.84
2022-10-09T14:18:37.795Z,102250.63
2022-10-09T14:21:15.348Z,102259.34
2022-10-09T14:23:46.265Z,102251.47
2022-10-09T14:26:16.342Z,102245.34
2022-10-09T14:28:46.655Z,102254.97
2022-10-09T14:31:19.620Z,102225.25
2022-10-09T14:33:49.792Z,102250.63
2022-10-09T14:36:20.686Z,102251.50
2022-10-09T14:38:51.478Z,102250.63
2022-10-09T14:41:22.311Z,102246.25
2022-10-09T14:43:59.572Z,102255.84
2022-10-09T14:46:32.051Z,102252.38
2022-10-09T14:49:07.542Z,102259.34
2022-10-09T14:51:39.519Z,102260.22
2022-10-09T14:54:12.174Z,102263.75
2022-10-09T14:56:42.654Z,102251.47
2022-10-09T14:59:12.972Z,102261.09
2022-10-09T15:01:43.147Z,102258.47
2022-10-09T15:04:15.325Z,102255.84
2022-10-09T15:06:45.714Z,102249.72
2022-10-09T15:09:15.809Z,102251.47
2022-10-09T15:11:46.005Z,102263.72
2022-10-09T15:14:16.141Z,102259.34
2022-10-09T15:16:47.120Z,102254.09
2022-10-09T15:19:17.502Z,102254.97
2022-10-09T15:21:47.670Z,102253.22
2022-10-09T15:24:17.775Z,102257.59
2022-10-09T15:26:47.836Z,102259.34
2022-10-09T15:29:18.000Z,102264.56
2022-10-09T15:31:50.175Z,102263.69
2022-10-09T15:34:20.442Z,102258.47
2022-10-09T15:36:51.200Z,102257.59
2022-10-09T15:39:21.424Z,102275.06
2022-10-09T15:41:51.663Z,102272.44
2022-10-09T15:44:21.818Z,102271.53
2022-10-09T15:46:51.949Z,102277.66
2022-10-09T15:49:22.274Z,102254.03
2022-10-09T15:51:52.475Z,102275.88
2022-10-09T15:54:23.577Z,102293.38
2022-10-09T15:56:54.806Z,102278.50
2022-10-09T15:59:25.883Z,102291.59
2022-10-09T16:01:56.014Z,102295.97
2022-10-09T16:04:27.083Z,102274.97
2022-10-09T16:06:58.343Z,102300.31
2022-10-09T16:09:33.433Z,102302.03
2022-10-09T16:12:03.970Z,102309.81
2022-10-09T16:14:34.047Z,102315.94
2022-10-09T16:17:05.560Z,102320.28
2022-10-09T16:19:39.148Z,102328.97
2022-10-09T16:22:09.349Z,102323.63
2022-10-09T16:24:39.477Z,102321.91
2022-10-09T16:27:09.688Z,102321.84
2022-10-09T16:29:39.818Z,102322.69
2022-10-09T16:32:10.168Z,102328.75
2022-10-09T16:34:45.912Z,102326.97
2022-10-09T16:37:16.566Z,102331.28
2022-10-09T16:39:49.475Z,102332.94
2022-10-09T16:42:19.845Z,102324.19
2022-10-09T16:44:51.632Z,102330.28
2022-10-09T16:47:21.821Z,102318.84
2022-10-09T16:49:52.169Z,102321.41
2022-10-09T16:52:22.334Z,102320.50
2022-10-09T16:54:55.865Z,102316.13
2022-10-09T16:57:27.285Z,102323.94
2022-10-09T16:59:57.481Z,102317.78
2022-10-09T17:02:28.912Z,102326.50
2022-10-09T17:04:59.143Z,102328.19
2022-10-09T17:07:29.651Z,102309.75
2022-10-09T17:09:59.902Z,102325.41
2022-10-09T17:12:30.946Z,102320.09
2022-10-09T17:15:01.129Z,102320.97
2022-10-09T17:17:31.363Z,102334.91
2022-10-09T17:20:01.779Z,102330.41
2022-10-09T17:22:31.900Z,102337.41
2022-10-09T17:25:01.975Z,102330.28
2022-10-09T17:27:32.122Z,102330.22
2022-10-09T17:30:02.230Z,102331.94
2022-10-09T17:32:32.328Z,102317.91
2022-10-09T17:35:02.579Z,102317.00
2022-10-09T17:37:32.696Z,102337.97
2022-10-09T17:40:02.900Z,102324.72
2022-10-09T17:42:33.088Z,102320.25
2022-10-09T17:45:03.394Z,102329.78
2022-10-09T17:47:33.638Z,102331.47
2022-10-09T17:50:04.024Z,102347.16
2022-10-09T17:52:34.118Z,102352.44
2022-10-09T17:55:04.519Z,102352.38
2022-10-09T17:57:34.664Z,102354.06
2022-10-09T18:00:05.836Z,102354.88
2022-10-09T18:02:35.945Z,102360.91
2022-10-09T18:05:06.860Z,102353.84
2022-10-09T18:07:37.027Z,102367.72
2022-10-09T18:10:07.663Z,102366.75
2022-10-09T18:12:37.774Z,102343.91
2022-10-09T18:15:08.550Z,102365.75
2022-10-09T18:17:39.000Z,102367.53
2022-10-09T18:20:09.389Z,102367.47
2022-10-09T18:22:39.600Z,102361.25
2022-10-09T18:25:09.786Z,102363.84
2022-10-09T18:27:39.982Z,102368.19
2022-10-09T18:30:10.782Z,102356.75
2022-10-09T18:32:40.879Z,102369.81
2022-10-09T18:35:10.968Z,102372.34
2022-10-09T18:37:41.489Z,102360.91
2022-10-09T18:40:11.793Z,102366.13
2022-10-09T18:42:41.930Z,102370.47
2022-10-09T18:45:14.832Z,102368.59
2022-10-09T18:47:45.214Z,102363.44
2022-10-09T18:50:16.305Z,102362.53
2022-10-09T18:52:46.924Z,102366.88
2022-10-09T18:55:19.010Z,102359.81
2022-10-09T18:57:49.158Z,102371.09
2022-10-09T19:00:19.371Z,102331.56
2022-10-09T19:02:49.499Z,102368.38
2022-10-09T19:05:19.683Z,102352.59
2022-10-09T19:07:49.992Z,102377.84
2022-10-09T19:10:20.246Z,102380.44
2022-10-09T19:12:52.782Z,102378.63
2022-10-09T19:15:22.950Z,102382.94
2022-10-09T19:17:53.308Z,102382.03
2022-10-09T19:20:23.638Z,102377.66
2022-10-09T19:22:53.791Z,102375.88
2022-10-09T19:25:24.710Z,102387.13
2022-10-09T19:27:54.958Z,102387.06
2022-10-09T19:30:25.152Z,102387.91
2022-10-09T19:32:55.176Z,102387.91
2022-10-09T19:35:25.326Z,102378.22
2022-10-09T19:37:55.465Z,102382.47
2022-10-09T19:40:26.160Z,102383.38
2022-10-09T19:42:56.310Z,102382.44
2022-10-09T19:45:26.442Z,102386.75
2022-10-09T19:47:56.724Z,102388.44
2022-10-09T19:50:26.996Z,102389.25
2022-10-09T19:52:57.805Z,102383.94
2022-10-09T19:55:30.893Z,102394.38
2022-10-09T19:58:01.328Z,102392.59
2022-10-09T20:00:31.486Z,102387.34
2022-10-09T20:03:01.638Z,102387.28
2022-10-09T20:05:32.606Z,102383.75
2022-10-09T20:08:02.777Z,102379.38
2022-10-09T20:10:35.851Z,102388.06
2022-10-09T20:13:06.373Z,102388.94
2022-10-09T20:15:36.487Z,102385.41
2022-10-09T20:18:06.550Z,102383.53
2022-10-09T20:20:37.496Z,102373.91
2022-10-09T20:23:07.732Z,102370.25
2022-10-09T20:25:37.841Z,102386.97
2022-10-09T20:28:08.000Z,102393.09
2022-10-09T20:30:38.083Z,102396.50
2022-10-09T20:33:09.076Z,102385.94
2022-10-09T20:35:43.668Z,102392.88
2022-10-09T20:38:14.490Z,102370.03
2022-10-09T20:40:45.858Z,102384.09
2022-10-09T20:43:16.021Z,102357.81
2022-10-09T20:45:46.573Z,102394.53
2022-10-09T20:48:16.749Z,102383.88
2022-10-09T20:50:46.887Z,102391.78
2022-10-09T20:53:17.118Z,102392.66
2022-10-09T20:55:47.689Z,102378.56
2022-10-09T20:58:17.865Z,102383.88
2022-10-09T21:00:48.137Z,102390.75
2022-10-09T21:03:18.214Z,102391.53
2022-10-09T21:05:48.407Z,102387.09
2022-10-09T21:08:18.552Z,102387.06
2022-10-09T21:10:50.314Z,102397.50
2022-10-09T21:13:20.487Z,102389.66
2022-10-09T21:15:51.144Z,102388.72
2022-10-09T21:18:21.315Z,102380.81
2022-10-09T21:20:51.435Z,102387.78
2022-10-09T21:23:21.679Z,102386.75
2022-10-09T21:25:53.633Z,102403.31
2022-10-09T21:28:24.316Z,102397.19
2022-10-09T21:30:54.755Z,102382.34
2022-10-09T21:33:24.868Z,102399.75
2022-10-09T21:35:55.607Z,102404.91
2022-10-09T21:38:25.777Z,102401.38
2022-10-09T21:40:55.962Z,102395.97
2022-10-09T21:43:26.153Z,102389.91
2022-10-09T21:45:56.689Z,102396.00
2022-10-09T21:48:26.998Z,102389.84
2022-10-09T21:50:57.648Z,102379.22
2022-10-09T21:53:27.822Z,102384.53
2022-10-09T21:55:57.985Z,102392.34
2022-10-09T21:58:28.114Z,102394.94
2022-10-09T22:01:00.581Z,102381.81
2022-10-09T22:03:32.987Z,102390.50
2022-10-09T22:06:09.637Z,102400.09
2022-10-09T22:08:40.989Z,102396.47
2022-10-09T22:11:11.959Z,102398.16
2022-10-09T22:13:42.073Z,102405.91
2022-10-09T22:16:14.645Z,102402.31
2022-10-09T22:18:44.806Z,102404.97
2022-10-09T22:21:15.846Z,102411.91
2022-10-09T22:23:46.129Z,102399.72
2022-10-09T22:26:19.678Z,102402.31
2022-10-09T22:28:50.537Z,102400.34
2022-10-09T22:31:23.806Z,102407.34
2022-10-09T22:34:00.123Z,102404.81
2022-10-09T22:36:32.604Z,102409.06
2022-10-09T22:39:05.901Z,102393.25
2022-10-09T22:41:36.677Z,102410.72
2022-10-09T22:44:08.746Z,102401.91
2022-10-09T22:46:41.402Z,102407.13
2022-10-09T22:49:14.490Z,102402.72
2022-10-09T22:51:45.497Z,102405.31
2022-10-09T22:54:15.716Z,102406.94
2022-10-09T22:56:46.460Z,102403.47
2022-10-09T22:59:18.305Z,102396.53
2022-10-09T23:01:54.973Z,102403.44
2022-10-09T23:04:25.557Z,102407.75
2022-10-09T23:06:57.652Z,102397.19
2022-10-09T23:09:30.610Z,102393.72
2022-10-09T23:12:00.768Z,102406.72
2022-10-09T23:14:31.045Z,102405.72
2022-10-09T23:17:01.110Z,102393.53
2022-10-09T23:19:31.251Z,102391.78
2022-10-09T23:22:01.644Z,102388.16
2022-10-09T23:24:31.830Z,102382.03
2022-10-09T23:27:01.900Z,102403.09
2022-10-09T23:29:32.039Z,102378.41
2022-10-09T23:32:02.181Z,102406.41
2022-10-09T23:34:32.284Z,102413.41
2022-10-09T23:37:02.432Z,102411.69
2022-10-09T23:39:32.514Z,102415.19
2022-10-09T23:42:02.680Z,102407.22
2022-10-09T23:44:32.758Z,102414.22
2022-10-09T23:47:02.929Z,102414.22
2022-10-09T23:49:32.996Z,102392.31
2022-10-09T23:52:03.475Z,102408.94
2022-10-09T23:54:33.547Z,102410.63
2022-10-09T23:57:03.801Z,102397.53
2022-10-09T23:59:33.898Z,102394.94
